createdAt,value
2017-10-04T00:02:20.114Z,76.40
2017-10-04T00:04:47.709Z,76.40
2017-10-04T00:07:15.266Z,76.40
2017-10-04T00:09:43.616Z,76.10
2017-10-04T00:12:11.093Z,76.00
2017-10-04T00:14:38.574Z,76.10
2017-10-04T00:17:06.824Z,76.20
2017-10-04T00:19:34.292Z,76.20
2017-10-04T00:22:02.568Z,76.30
2017-10-04T00:24:30.829Z,76.40
2017-10-04T00:26:58.392Z,76.30
2017-10-04T00:29:26.641Z,76.40
2017-10-04T00:31:54.112Z,76.30
2017-10-04T00:34:21.597Z,76.40
2017-10-04T00:36:49.913Z,76.50
2017-10-04T00:39:17.401Z,76.50
2017-10-04T00:41:44.963Z,76.50
2017-10-04T00:44:12.453Z,76.60
2017-10-04T00:46:39.985Z,76.60
2017-10-04T00:49:07.537Z,76.50
2017-10-04T00:51:35.018Z,77.00
2017-10-04T00:54:03.256Z,76.70
2017-10-04T00:56:30.725Z,76.70
2017-10-04T00:58:58.290Z,76.70
2017-10-04T01:01:25.775Z,76.70
2017-10-04T01:03:53.306Z,77.00
2017-10-04T01:06:20.857Z,77.10
2017-10-04T01:08:48.416Z,77.10
2017-10-04T01:11:15.881Z,77.10
2017-10-04T01:13:43.367Z,77.10
2017-10-04T01:16:10.829Z,77.80
2017-10-04T01:18:38.302Z,77.40
2017-10-04T01:21:05.863Z,77.40
2017-10-04T01:23:33.364Z,77.40
2017-10-04T01:26:00.836Z,77.30
2017-10-04T01:28:29.077Z,77.70
2017-10-04T01:30:56.541Z,77.50
2017-10-04T01:33:24.023Z,77.60
2017-10-04T01:35:52.288Z,77.70
2017-10-04T01:38:19.849Z,77.60
2017-10-04T01:40:47.320Z,77.80
2017-10-04T01:43:15.563Z,78.00
2017-10-04T01:45:43.133Z,77.90
2017-10-04T01:48:10.614Z,78.00
2017-10-04T01:50:38.851Z,78.20
2017-10-04T01:53:06.309Z,78.20
2017-10-04T01:55:34.553Z,78.50
2017-10-04T01:58:02.008Z,78.40
2017-10-04T02:00:29.497Z,78.50
2017-10-04T02:02:57.793Z,78.50
2017-10-04T02:05:26.036Z,78.50
2017-10-04T02:07:53.512Z,78.50
2017-10-04T02:10:21.136Z,78.60
2017-10-04T02:12:48.610Z,78.40
2017-10-04T02:15:16.089Z,78.70
2017-10-04T02:17:44.377Z,79.60
2017-10-04T02:20:11.850Z,78.90
2017-10-04T02:22:40.101Z,79.00
2017-10-04T02:25:07.576Z,78.90
2017-10-04T02:27:35.799Z,79.20
2017-10-04T02:30:03.345Z,79.10
2017-10-04T02:32:30.904Z,78.90
2017-10-04T02:34:58.402Z,79.40
2017-10-04T02:37:25.881Z,79.60
2017-10-04T02:39:54.132Z,79.40
2017-10-04T02:42:21.613Z,79.30
2017-10-04T02:44:49.869Z,79.60
2017-10-04T02:47:17.345Z,79.50
2017-10-04T02:49:45.597Z,79.40
2017-10-04T02:52:13.078Z,79.40
2017-10-04T02:54:41.301Z,79.40
2017-10-04T02:57:08.785Z,79.40
2017-10-04T02:59:36.269Z,79.30
2017-10-04T03:02:04.547Z,79.60
2017-10-04T03:04:32.863Z,79.80
2017-10-04T03:07:00.325Z,79.70
2017-10-04T03:09:27.815Z,79.80
2017-10-04T03:11:55.375Z,79.70
2017-10-04T03:14:22.933Z,79.70
2017-10-04T03:16:50.497Z,79.40
2017-10-04T03:19:18.008Z,80.30
2017-10-04T03:21:45.488Z,80.30
2017-10-04T03:24:12.969Z,80.40
2017-10-04T03:26:40.510Z,80.00
2017-10-04T03:29:07.993Z,80.30
2017-10-04T03:31:36.249Z,80.60
2017-10-04T03:34:03.805Z,80.50
2017-10-04T03:36:31.284Z,80.60
2017-10-04T03:38:59.540Z,80.70
2017-10-04T03:41:27.778Z,80.60
2017-10-04T03:43:55.249Z,80.60
2017-10-04T03:46:22.716Z,80.70
2017-10-04T03:48:50.208Z,80.90
2017-10-04T03:51:18.522Z,81.10
2017-10-04T03:53:45.988Z,81.00
2017-10-04T03:56:13.457Z,81.10
2017-10-04T03:58:40.928Z,81.60
2017-10-04T04:01:08.405Z,81.60
2017-10-04T04:03:36.682Z,81.30
2017-10-04T04:06:04.934Z,81.10
2017-10-04T04:08:32.416Z,81.00
2017-10-04T04:11:00.678Z,81.00
2017-10-04T04:13:28.187Z,80.80
2017-10-04T04:15:55.652Z,80.90
2017-10-04T04:18:23.152Z,80.70
2017-10-04T04:20:50.624Z,80.60
2017-10-04T04:23:18.898Z,80.20
2017-10-04T04:25:47.267Z,80.40
2017-10-04T04:28:14.837Z,80.20
2017-10-04T04:30:43.058Z,80.30
2017-10-04T04:33:10.551Z,80.10
2017-10-04T04:35:38.104Z,80.40
2017-10-04T04:38:17.593Z,80.00
2017-10-04T04:40:45.073Z,80.10
2017-10-04T04:43:12.560Z,80.20
2017-10-04T04:45:40.118Z,80.00
2017-10-04T04:48:07.670Z,79.80
2017-10-04T04:50:35.930Z,79.80
2017-10-04T04:53:03.470Z,79.60
2017-10-04T04:55:30.956Z,79.80
2017-10-04T04:57:58.437Z,79.30
2017-10-04T05:00:26.697Z,79.20
2017-10-04T05:02:54.248Z,79.20
2017-10-04T05:05:23.249Z,79.10
2017-10-04T05:07:50.809Z,79.00
2017-10-04T05:10:18.373Z,78.90
2017-10-04T05:12:45.925Z,79.20
2017-10-04T05:15:13.437Z,78.60
2017-10-04T05:17:40.937Z,78.50
2017-10-04T05:20:08.526Z,78.70
2017-10-04T05:22:36.757Z,78.30
2017-10-04T05:25:04.320Z,78.30
2017-10-04T05:27:31.793Z,78.50
2017-10-04T05:29:59.348Z,78.40
2017-10-04T05:32:26.905Z,78.40
2017-10-04T05:34:54.375Z,78.20
2017-10-04T05:37:22.641Z,78.80
2017-10-04T05:39:50.288Z,77.90
2017-10-04T05:42:17.758Z,77.80
2017-10-04T05:44:45.313Z,78.00
2017-10-04T05:47:12.771Z,78.20
2017-10-04T05:49:40.329Z,77.60
2017-10-04T05:52:07.802Z,78.10
2017-10-04T05:54:36.064Z,77.80
2017-10-04T05:57:03.626Z,77.60
2017-10-04T05:59:31.080Z,77.10
2017-10-04T06:01:58.693Z,76.60
2017-10-04T06:04:26.153Z,76.40
2017-10-04T06:06:53.656Z,77.10
2017-10-04T06:09:21.205Z,76.90
2017-10-04T06:11:49.480Z,76.90
2017-10-04T06:14:16.954Z,77.00
2017-10-04T06:16:44.425Z,77.30
2017-10-04T06:19:12.659Z,77.00
2017-10-04T06:21:40.129Z,77.00
2017-10-04T06:24:07.690Z,76.70
2017-10-04T06:26:35.185Z,76.50
2017-10-04T06:29:02.664Z,75.80
2017-10-04T06:31:30.165Z,76.20
2017-10-04T06:33:57.637Z,76.30
2017-10-04T06:36:25.885Z,75.90
2017-10-04T06:38:53.364Z,75.90
2017-10-04T06:41:21.628Z,76.00
2017-10-04T06:43:49.918Z,75.80
2017-10-04T06:46:18.196Z,75.20
2017-10-04T06:48:46.437Z,75.80
2017-10-04T06:51:13.906Z,75.80
2017-10-04T06:53:41.384Z,75.80
2017-10-04T06:56:09.663Z,75.30
2017-10-04T06:58:37.120Z,75.20
2017-10-04T07:01:05.360Z,75.50
2017-10-04T07:03:32.821Z,76.20
2017-10-04T07:06:00.392Z,75.00
2017-10-04T07:08:27.947Z,75.30
2017-10-04T07:10:55.498Z,75.20
2017-10-04T07:13:23.058Z,75.00
2017-10-04T07:15:51.456Z,74.30
2017-10-04T07:18:18.928Z,74.30
2017-10-04T07:20:46.404Z,74.30
2017-10-04T07:23:13.879Z,74.80
2017-10-04T07:25:41.345Z,73.70
2017-10-04T07:28:08.808Z,73.80
2017-10-04T07:30:36.285Z,73.90
2017-10-04T07:33:03.836Z,74.00
2017-10-04T07:35:31.393Z,73.80
2017-10-04T07:37:58.966Z,72.90
2017-10-04T07:40:26.412Z,72.40
2017-10-04T07:42:53.893Z,73.10
2017-10-04T07:45:22.148Z,73.20
2017-10-04T07:47:50.481Z,73.20
2017-10-04T07:50:17.986Z,73.00
2017-10-04T07:52:46.963Z,71.70
2017-10-04T07:55:14.487Z,71.70
2017-10-04T07:57:41.956Z,71.70
2017-10-04T08:00:09.427Z,72.60
2017-10-04T08:02:36.909Z,72.50
2017-10-04T08:05:04.373Z,71.20
2017-10-04T08:07:32.692Z,71.20
2017-10-04T08:10:00.197Z,71.20
2017-10-04T08:12:27.750Z,71.40
2017-10-04T08:14:55.224Z,71.50
2017-10-04T08:17:23.449Z,70.10
2017-10-04T08:19:50.997Z,70.00
2017-10-04T08:22:18.505Z,70.10
2017-10-04T08:24:45.985Z,70.60
2017-10-04T08:27:14.224Z,70.80
2017-10-04T08:29:41.721Z,70.60
2017-10-04T08:32:09.185Z,70.40
2017-10-04T08:34:36.644Z,69.30
2017-10-04T08:37:04.110Z,68.80
2017-10-04T08:39:31.589Z,69.10
2017-10-04T08:41:59.130Z,68.80
2017-10-04T08:44:26.606Z,68.00
2017-10-04T08:46:55.000Z,68.20
2017-10-04T08:49:22.560Z,68.20
2017-10-04T08:51:50.125Z,67.80
2017-10-04T08:54:17.596Z,68.00
2017-10-04T08:56:45.857Z,68.40
2017-10-04T08:59:13.321Z,68.30
2017-10-04T09:01:40.793Z,67.30
2017-10-04T09:07:02.509Z,67.60
2017-10-04T09:09:29.978Z,67.60
2017-10-04T09:11:57.459Z,67.50
2017-10-04T09:14:25.684Z,65.70
2017-10-04T09:16:53.165Z,65.60
2017-10-04T09:19:20.633Z,66.30
2017-10-04T09:21:48.892Z,66.20
2017-10-04T09:24:16.350Z,66.10
2017-10-04T09:26:43.829Z,66.40
2017-10-04T09:29:12.062Z,64.30
2017-10-04T09:31:39.533Z,64.10
2017-10-04T09:34:07.001Z,63.40
2017-10-04T09:36:34.469Z,65.00
2017-10-04T09:39:02.708Z,64.50
2017-10-04T09:41:30.168Z,64.50
2017-10-04T09:43:57.637Z,64.20
2017-10-04T09:46:25.105Z,63.90
2017-10-04T09:48:53.336Z,64.80
2017-10-04T09:51:20.816Z,64.60
2017-10-04T09:53:48.376Z,64.30
2017-10-04T09:56:15.942Z,65.00
2017-10-04T09:58:44.185Z,65.80
2017-10-04T10:01:11.640Z,64.80
2017-10-04T10:03:39.499Z,64.80
2017-10-04T10:06:07.017Z,65.10
2017-10-04T10:08:35.289Z,65.00
2017-10-04T10:11:03.529Z,64.50
2017-10-04T10:13:31.529Z,64.50
2017-10-04T10:15:59.337Z,64.30
2017-10-04T10:18:27.625Z,66.20
2017-10-04T10:20:55.081Z,66.10
2017-10-04T10:23:22.574Z,65.70
2017-10-04T10:25:50.032Z,65.30
2017-10-04T10:28:17.501Z,65.60
2017-10-04T10:30:45.733Z,65.90
2017-10-04T10:33:13.213Z,65.80
2017-10-04T10:35:40.789Z,65.00
2017-10-04T10:38:09.026Z,66.50
2017-10-04T10:40:36.488Z,65.60
2017-10-04T10:43:04.021Z,65.70
2017-10-04T10:45:31.492Z,65.00
2017-10-04T10:47:58.974Z,64.40
2017-10-04T10:50:26.429Z,64.10
2017-10-04T10:52:54.002Z,64.80
2017-10-04T10:55:21.559Z,64.00
2017-10-04T10:57:49.105Z,65.00
2017-10-04T11:00:16.663Z,64.10
2017-10-04T11:02:44.741Z,64.40
2017-10-04T11:05:12.207Z,64.60
2017-10-04T11:07:39.664Z,64.60
2017-10-04T11:10:07.920Z,64.60
2017-10-04T11:12:35.380Z,64.50
2017-10-04T11:15:02.841Z,63.40
2017-10-04T11:17:30.305Z,63.30
2017-10-04T11:19:57.853Z,62.10
2017-10-04T11:22:25.352Z,62.30
2017-10-04T11:24:52.869Z,62.10
2017-10-04T11:27:20.385Z,61.70
2017-10-04T11:29:47.898Z,62.30
2017-10-04T11:32:15.473Z,62.20
2017-10-04T11:34:43.724Z,61.60
2017-10-04T11:37:11.190Z,61.50
2017-10-04T11:39:39.442Z,62.40
2017-10-04T11:42:07.014Z,62.30
2017-10-04T11:44:34.477Z,62.20
2017-10-04T11:47:01.932Z,61.80
2017-10-04T11:49:29.398Z,61.70
2017-10-04T11:51:57.625Z,62.00
2017-10-04T11:54:25.100Z,61.90
2017-10-04T11:56:52.730Z,61.80
2017-10-04T11:59:20.228Z,62.50
2017-10-04T12:01:47.758Z,62.00
2017-10-04T12:04:15.241Z,61.80
2017-10-04T12:06:43.516Z,60.80
2017-10-04T12:09:11.105Z,60.70
2017-10-04T12:11:39.409Z,61.40
2017-10-04T12:14:06.970Z,61.40
2017-10-04T12:16:34.421Z,61.30
2017-10-04T12:19:01.956Z,61.10
2017-10-04T12:21:30.181Z,60.50
2017-10-04T12:23:58.025Z,60.40
2017-10-04T12:26:25.486Z,59.80
2017-10-04T12:28:52.992Z,60.30
2017-10-04T12:31:21.252Z,59.80
2017-10-04T12:33:48.721Z,59.80
2017-10-04T12:36:16.284Z,59.70
2017-10-04T12:38:43.922Z,59.30
2017-10-04T12:41:11.406Z,59.30
2017-10-04T12:43:39.637Z,59.70
2017-10-04T12:46:07.140Z,59.60
2017-10-04T12:48:35.382Z,59.40
2017-10-04T12:51:02.841Z,59.40
2017-10-04T12:53:30.371Z,59.60
2017-10-04T12:55:57.873Z,59.60
2017-10-04T12:58:25.341Z,58.20
2017-10-04T13:00:53.603Z,58.90
2017-10-04T13:03:21.883Z,57.90
2017-10-04T13:05:49.452Z,57.90
2017-10-04T13:08:17.012Z,58.40
2017-10-04T13:10:44.572Z,58.50
2017-10-04T13:13:12.836Z,58.50
2017-10-04T13:15:40.310Z,58.50
2017-10-04T13:18:08.568Z,58.50
2017-10-04T13:20:36.131Z,58.50
2017-10-04T13:23:04.369Z,58.80
2017-10-04T13:25:32.019Z,58.80
2017-10-04T13:27:59.487Z,58.80
2017-10-04T13:30:26.969Z,58.80
2017-10-04T13:32:54.433Z,58.80
2017-10-04T13:35:21.909Z,58.80
2017-10-04T13:37:50.132Z,59.40
2017-10-04T13:40:17.617Z,59.30
2017-10-04T13:42:45.080Z,59.70
2017-10-04T13:45:12.568Z,59.30
2017-10-04T13:47:40.030Z,58.70
2017-10-04T13:50:07.545Z,59.20
2017-10-04T13:52:35.025Z,59.20
2017-10-04T13:55:03.252Z,59.40
2017-10-04T13:57:30.709Z,59.30
2017-10-04T13:59:58.190Z,59.10
2017-10-04T14:02:25.703Z,58.90
2017-10-04T14:04:53.172Z,59.40
2017-10-04T14:07:20.716Z,59.40
2017-10-04T14:09:48.225Z,59.70
2017-10-04T14:12:15.834Z,59.50
2017-10-04T14:14:43.303Z,59.50
2017-10-04T14:17:10.781Z,59.80
2017-10-04T14:19:38.253Z,59.80
2017-10-04T14:22:05.809Z,59.70
2017-10-04T14:24:33.281Z,59.60
2017-10-04T14:27:01.526Z,59.90
2017-10-04T14:29:28.995Z,59.90
2017-10-04T14:31:56.456Z,59.70
2017-10-04T14:34:24.744Z,59.50
2017-10-04T14:36:53.010Z,60.40
2017-10-04T14:39:20.564Z,59.80
2017-10-04T14:41:48.252Z,60.10
2017-10-04T14:44:16.502Z,60.20
2017-10-04T14:46:44.065Z,60.20
2017-10-04T14:49:12.293Z,59.70
2017-10-04T14:51:39.749Z,59.70
2017-10-04T14:54:07.228Z,59.90
2017-10-04T14:56:34.696Z,60.20
2017-10-04T14:59:02.181Z,60.40
2017-10-04T15:01:30.423Z,60.10
2017-10-04T15:03:57.890Z,60.10
2017-10-04T15:06:25.383Z,59.90
2017-10-04T15:08:52.895Z,60.40
2017-10-04T15:11:20.522Z,60.30
2017-10-04T15:13:47.972Z,59.70
2017-10-04T15:16:15.434Z,59.80
2017-10-04T15:18:42.901Z,60.00
2017-10-04T15:21:10.381Z,59.90
2017-10-04T15:23:37.861Z,59.90
2017-10-04T15:26:06.182Z,60.30
2017-10-04T15:28:33.686Z,59.60
2017-10-04T15:31:01.156Z,59.90
2017-10-04T15:33:29.402Z,59.80
2017-10-04T15:35:56.977Z,59.80
2017-10-04T15:38:24.463Z,60.30
2017-10-04T15:40:52.702Z,60.40
2017-10-04T15:43:20.931Z,60.20
2017-10-04T15:45:48.390Z,60.20
2017-10-04T15:48:15.863Z,60.90
2017-10-04T15:50:43.347Z,60.30
2017-10-04T15:53:10.841Z,60.60
2017-10-04T15:55:38.310Z,60.70
2017-10-04T15:58:05.784Z,60.00
2017-10-04T16:00:33.244Z,60.30
2017-10-04T16:03:00.717Z,60.30
2017-10-04T16:05:28.178Z,60.40
2017-10-04T16:07:55.650Z,60.20
2017-10-04T16:10:23.112Z,60.30
2017-10-04T16:12:50.671Z,60.60
2017-10-04T16:15:18.133Z,60.90
2017-10-04T16:17:45.717Z,62.60
2017-10-04T16:20:14.170Z,60.70
2017-10-04T16:22:41.639Z,60.60
2017-10-04T16:25:09.869Z,61.10
2017-10-04T16:27:37.349Z,61.00
2017-10-04T16:30:04.912Z,61.10
2017-10-04T16:32:32.374Z,61.40
2017-10-04T16:34:59.846Z,61.40
2017-10-04T16:37:28.093Z,61.20
2017-10-04T16:39:55.576Z,61.00
2017-10-04T16:42:23.804Z,61.00
2017-10-04T16:44:51.491Z,61.00
2017-10-04T16:47:18.944Z,61.20
2017-10-04T16:49:46.421Z,61.40
2017-10-04T16:52:14.662Z,61.00
2017-10-04T16:54:42.129Z,61.00
2017-10-04T16:57:09.593Z,61.10
2017-10-04T16:59:37.062Z,61.30
2017-10-04T17:02:05.296Z,61.70
2017-10-04T17:04:32.784Z,61.70
2017-10-04T17:07:00.242Z,61.70
2017-10-04T17:09:28.500Z,62.00
2017-10-04T17:11:56.018Z,62.80
2017-10-04T17:14:23.496Z,62.20
2017-10-04T17:16:50.970Z,62.10
2017-10-04T17:19:18.429Z,62.40
2017-10-04T17:21:45.905Z,62.60
2017-10-04T17:24:14.140Z,62.90
2017-10-04T17:26:41.609Z,62.90
2017-10-04T17:29:09.077Z,62.90
2017-10-04T17:31:37.313Z,63.00
2017-10-04T17:34:04.822Z,63.00
2017-10-04T17:36:32.301Z,63.00
2017-10-04T17:39:00.537Z,63.00
2017-10-04T17:41:28.105Z,63.90
2017-10-04T17:43:55.565Z,63.00
2017-10-04T17:46:23.057Z,62.80
2017-10-04T17:48:50.534Z,62.90
2017-10-04T17:51:17.992Z,62.80
2017-10-04T17:53:45.468Z,63.20
2017-10-04T17:56:12.922Z,63.20
2017-10-04T17:58:40.391Z,62.90
2017-10-04T18:01:07.954Z,63.10
2017-10-04T18:03:35.559Z,62.90
2017-10-04T18:06:03.026Z,62.70
2017-10-04T18:08:30.558Z,62.30
2017-10-04T18:10:58.939Z,62.60
2017-10-04T18:13:27.204Z,62.00
2017-10-04T18:15:54.688Z,61.90
2017-10-04T18:18:22.225Z,62.00
2017-10-04T18:20:50.517Z,61.90
2017-10-04T18:23:18.071Z,61.90
2017-10-04T18:25:45.573Z,61.90
2017-10-04T18:28:13.027Z,62.00
2017-10-04T18:30:40.497Z,61.90
2017-10-04T18:33:07.997Z,61.90
2017-10-04T18:35:36.443Z,61.80
2017-10-04T18:38:03.908Z,61.60
2017-10-04T18:40:32.154Z,61.80
2017-10-04T18:42:59.634Z,61.80
2017-10-04T18:45:27.100Z,61.60
2017-10-04T18:47:54.564Z,61.50
2017-10-04T18:50:22.805Z,61.30
2017-10-04T18:52:50.297Z,61.20
2017-10-04T18:55:17.765Z,61.60
2017-10-04T18:57:45.996Z,62.50
2017-10-04T19:00:13.459Z,62.50
2017-10-04T19:02:40.941Z,61.10
2017-10-04T19:05:09.180Z,61.00
2017-10-04T19:07:36.838Z,60.90
2017-10-04T19:10:04.305Z,60.90
2017-10-04T19:12:31.778Z,61.10
2017-10-04T19:14:59.453Z,61.30
2017-10-04T19:17:27.676Z,61.10
2017-10-04T19:19:55.144Z,61.00
2017-10-04T19:22:22.614Z,61.10
2017-10-04T19:24:50.069Z,60.90
2017-10-04T19:27:17.545Z,61.00
2017-10-04T19:29:45.097Z,60.60
2017-10-04T19:32:13.336Z,60.90
2017-10-04T19:34:40.829Z,60.80
2017-10-04T19:37:08.302Z,61.00
2017-10-04T19:39:36.618Z,60.80
2017-10-04T19:42:04.128Z,60.80
2017-10-04T19:44:32.379Z,60.50
2017-10-04T19:46:59.959Z,60.50
2017-10-04T19:49:27.502Z,60.60
2017-10-04T19:51:55.037Z,60.60
2017-10-04T19:54:22.538Z,60.50
2017-10-04T19:56:49.998Z,60.30
2017-10-04T19:59:18.261Z,60.80
2017-10-04T20:01:45.725Z,60.70
2017-10-04T20:04:13.192Z,60.80
2017-10-04T20:06:41.429Z,61.00
2017-10-04T20:09:09.015Z,60.80
2017-10-04T20:11:36.557Z,60.90
2017-10-04T20:14:04.078Z,61.30
2017-10-04T20:16:31.587Z,61.00
2017-10-04T20:18:59.132Z,61.10
2017-10-04T20:21:26.599Z,61.20
2017-10-04T20:23:54.072Z,61.10
2017-10-04T20:26:22.305Z,61.10
2017-10-04T20:28:49.782Z,61.10
2017-10-04T20:31:17.337Z,61.10
2017-10-04T20:33:44.867Z,61.00
2017-10-04T20:36:12.327Z,61.00
2017-10-04T20:38:39.789Z,61.10
2017-10-04T20:41:07.256Z,61.00
2017-10-04T20:43:34.734Z,61.30
2017-10-04T20:46:02.210Z,61.60
2017-10-04T20:48:30.441Z,61.00
2017-10-04T20:50:57.904Z,60.90
2017-10-04T20:53:25.381Z,60.90
2017-10-04T20:55:53.621Z,61.20
2017-10-04T20:58:21.090Z,61.10
2017-10-04T21:00:48.559Z,61.20
2017-10-04T21:03:16.046Z,61.30
2017-10-04T21:05:44.281Z,61.50
2017-10-04T21:08:11.752Z,61.30
2017-10-04T21:10:39.241Z,61.70
2017-10-04T21:13:06.704Z,61.40
2017-10-04T21:15:34.277Z,61.40
2017-10-04T21:18:01.745Z,61.40
2017-10-04T21:20:29.201Z,61.80
2017-10-04T21:22:56.678Z,62.40
2017-10-04T21:25:24.207Z,61.60
2017-10-04T21:27:51.768Z,61.50
2017-10-04T21:30:19.265Z,61.80
2017-10-04T21:32:46.735Z,62.00
2017-10-04T21:35:15.010Z,62.20
2017-10-04T21:37:42.470Z,62.10
2017-10-04T21:40:10.786Z,62.30
2017-10-04T21:42:38.301Z,62.30
2017-10-04T21:45:06.532Z,63.20
2017-10-04T21:47:34.034Z,63.00
2017-10-04T21:50:02.269Z,63.70
2017-10-04T21:52:29.765Z,63.60
2017-10-04T21:54:58.005Z,64.00
2017-10-04T21:57:25.480Z,64.00
2017-10-04T21:59:53.057Z,63.70
2017-10-04T22:02:21.323Z,63.70
2017-10-04T22:04:48.797Z,63.60
2017-10-04T22:07:17.024Z,63.00
2017-10-04T22:09:44.606Z,63.00
2017-10-04T22:12:12.084Z,63.30
2017-10-04T22:14:40.337Z,63.40
2017-10-04T22:17:07.798Z,63.30
2017-10-04T22:19:35.291Z,63.20
2017-10-04T22:22:02.757Z,64.40
2017-10-04T22:24:30.228Z,63.90
2017-10-04T22:26:57.708Z,63.00
2017-10-04T22:29:25.168Z,62.90
2017-10-04T22:31:52.768Z,63.00
2017-10-04T22:34:21.002Z,63.30
2017-10-04T22:36:48.477Z,63.20
2017-10-04T22:39:16.715Z,64.00
2017-10-04T22:41:44.188Z,63.10
2017-10-04T22:44:11.650Z,63.00
2017-10-04T22:46:39.173Z,62.90
2017-10-04T22:49:06.628Z,63.20
2017-10-04T22:51:34.121Z,63.00
2017-10-04T22:54:04.829Z,63.00
2017-10-04T22:56:32.338Z,63.10
2017-10-04T22:58:59.800Z,63.20
2017-10-04T23:01:28.053Z,63.00
2017-10-04T23:03:56.337Z,63.80
2017-10-04T23:06:24.564Z,63.30
2017-10-04T23:08:52.037Z,63.30
2017-10-04T23:11:19.505Z,63.20
2017-10-04T23:13:46.992Z,63.30
2017-10-04T23:16:15.224Z,63.50
2017-10-04T23:18:42.697Z,63.40
2017-10-04T23:21:10.177Z,63.30
2017-10-04T23:23:38.451Z,63.10
2017-10-04T23:26:06.693Z,63.10
2017-10-04T23:28:34.164Z,63.10
2017-10-04T23:31:01.646Z,63.10
2017-10-04T23:33:29.885Z,63.40
2017-10-04T23:35:57.362Z,64.10
2017-10-04T23:38:24.917Z,63.20
2017-10-04T23:40:53.164Z,63.10
2017-10-04T23:43:20.753Z,63.00
2017-10-04T23:45:48.230Z,63.10
2017-10-04T23:48:16.540Z,63.00
2017-10-04T23:50:44.016Z,62.80
2017-10-04T23:53:11.519Z,63.00
2017-10-04T23:55:39.803Z,63.10
2017-10-04T23:58:07.332Z,63.10
